sensor_id;sensor_type;location;lat;lon;timestamp;P1;durP1;ratioP1;P2;durP2;ratioP2
37903;SDS011;23738;50.422;18.758;2022-10-16T00:02:00;12.65;;;8.98;;
37903;SDS011;23738;50.422;18.758;2022-10-16T00:04:26;11.95;;;10.65;;
37903;SDS011;23738;50.422;18.758;2022-10-16T00:06:51;13.20;;;9.60;;
37903;SDS011;23738;50.422;18.758;2022-10-16T00:09:17;12.00;;;10.70;;
37903;SDS011;23738;50.422;18.758;2022-10-16T00:11:43;18.90;;;10.13;;
37903;SDS011;23738;50.422;18.758;2022-10-16T00:14:10;11.10;;;10.00;;
37903;SDS011;23738;50.422;18.758;2022-10-16T00:16:39;9.78;;;7.90;;
37903;SDS011;23738;50.422;18.758;2022-10-16T00:19:05;13.00;;;11.70;;
37903;SDS011;23738;50.422;18.758;2022-10-16T00:21:31;13.55;;;12.25;;
37903;SDS011;23738;50.422;18.758;2022-10-16T00:24:00;16.42;;;11.08;;
37903;SDS011;23738;50.422;18.758;2022-10-16T00:26:30;12.40;;;11.28;;
37903;SDS011;23738;50.422;18.758;2022-10-16T00:28:58;12.50;;;11.40;;
37903;SDS011;23738;50.422;18.758;2022-10-16T00:31:24;10.40;;;9.45;;
37903;SDS011;23738;50.422;18.758;2022-10-16T00:33:50;9.40;;;8.50;;
37903;SDS011;23738;50.422;18.758;2022-10-16T00:36:18;12.28;;;9.93;;
37903;SDS011;23738;50.422;18.758;2022-10-16T00:38:47;11.53;;;10.15;;
37903;SDS011;23738;50.422;18.758;2022-10-16T00:41:20;11.60;;;10.55;;
37903;SDS011;23738;50.422;18.758;2022-10-16T00:43:50;15.03;;;11.78;;
37903;SDS011;23738;50.422;18.758;2022-10-16T00:49:05;10.75;;;9.58;;
37903;SDS011;23738;50.422;18.758;2022-10-16T00:51:41;9.70;;;8.68;;
37903;SDS011;23738;50.422;18.758;2022-10-16T00:54:14;10.05;;;9.05;;
37903;SDS011;23738;50.422;18.758;2022-10-16T00:56:43;13.88;;;12.47;;
37903;SDS011;23738;50.422;18.758;2022-10-16T00:59:19;13.20;;;11.90;;
37903;SDS011;23738;50.422;18.758;2022-10-16T01:01:45;13.30;;;11.10;;
37903;SDS011;23738;50.422;18.758;2022-10-16T01:04:11;14.07;;;12.55;;
37903;SDS011;23738;50.422;18.758;2022-10-16T01:06:50;14.43;;;12.13;;
37903;SDS011;23738;50.422;18.758;2022-10-16T01:12:50;12.73;;;11.55;;
37903;SDS011;23738;50.422;18.758;2022-10-16T01:15:41;13.15;;;11.85;;
37903;SDS011;23738;50.422;18.758;2022-10-16T01:18:39;13.65;;;12.25;;
37903;SDS011;23738;50.422;18.758;2022-10-16T01:21:31;14.33;;;12.93;;
37903;SDS011;23738;50.422;18.758;2022-10-16T01:26:50;11.75;;;10.45;;
37903;SDS011;23738;50.422;18.758;2022-10-16T01:29:53;13.43;;;12.13;;
37903;SDS011;23738;50.422;18.758;2022-10-16T01:32:33;12.90;;;11.60;;
37903;SDS011;23738;50.422;18.758;2022-10-16T01:35:09;12.68;;;11.30;;
37903;SDS011;23738;50.422;18.758;2022-10-16T01:37:54;15.37;;;11.63;;
37903;SDS011;23738;50.422;18.758;2022-10-16T01:40:26;15.10;;;10.55;;
37903;SDS011;23738;50.422;18.758;2022-10-16T01:42:56;10.58;;;8.98;;
37903;SDS011;23738;50.422;18.758;2022-10-16T01:45:28;17.07;;;10.93;;
37903;SDS011;23738;50.422;18.758;2022-10-16T01:47:57;12.53;;;11.25;;
37903;SDS011;23738;50.422;18.758;2022-10-16T01:50:28;11.78;;;10.68;;
37903;SDS011;23738;50.422;18.758;2022-10-16T01:52:54;12.95;;;11.73;;
37903;SDS011;23738;50.422;18.758;2022-10-16T01:55:28;13.22;;;11.93;;
37903;SDS011;23738;50.422;18.758;2022-10-16T01:57:57;10.63;;;9.63;;
37903;SDS011;23738;50.422;18.758;2022-10-16T02:00:27;9.25;;;8.35;;
37903;SDS011;23738;50.422;18.758;2022-10-16T02:02:53;11.22;;;10.10;;
37903;SDS011;23738;50.422;18.758;2022-10-16T02:05:26;12.43;;;11.13;;
37903;SDS011;23738;50.422;18.758;2022-10-16T02:07:56;14.87;;;11.90;;
37903;SDS011;23738;50.422;18.758;2022-10-16T02:10:22;13.20;;;11.97;;
37903;SDS011;23738;50.422;18.758;2022-10-16T02:12:52;11.70;;;10.55;;
37903;SDS011;23738;50.422;18.758;2022-10-16T02:15:36;9.88;;;8.88;;
37903;SDS011;23738;50.422;18.758;2022-10-16T02:18:06;13.70;;;11.25;;
37903;SDS011;23738;50.422;18.758;2022-10-16T02:20:32;19.32;;;12.35;;
37903;SDS011;23738;50.422;18.758;2022-10-16T02:23:04;14.70;;;13.08;;
37903;SDS011;23738;50.422;18.758;2022-10-16T02:25:35;14.47;;;12.98;;
37903;SDS011;23738;50.422;18.758;2022-10-16T02:30:56;12.55;;;11.35;;
37903;SDS011;23738;50.422;18.758;2022-10-16T02:33:29;13.88;;;11.97;;
37903;SDS011;23738;50.422;18.758;2022-10-16T02:35:57;17.30;;;13.22;;
37903;SDS011;23738;50.422;18.758;2022-10-16T02:38:23;15.15;;;13.55;;
37903;SDS011;23738;50.422;18.758;2022-10-16T02:40:50;17.07;;;13.65;;
37903;SDS011;23738;50.422;18.758;2022-10-16T02:43:17;17.40;;;13.95;;
37903;SDS011;23738;50.422;18.758;2022-10-16T02:45:43;15.68;;;13.28;;
37903;SDS011;23738;50.422;18.758;2022-10-16T02:48:09;14.45;;;12.35;;
37903;SDS011;23738;50.422;18.758;2022-10-16T02:50:35;13.50;;;11.28;;
37903;SDS011;23738;50.422;18.758;2022-10-16T02:53:01;15.90;;;12.63;;
37903;SDS011;23738;50.422;18.758;2022-10-16T02:55:27;15.53;;;13.35;;
37903;SDS011;23738;50.422;18.758;2022-10-16T02:57:53;16.37;;;13.97;;
37903;SDS011;23738;50.422;18.758;2022-10-16T03:00:19;14.57;;;13.07;;
37903;SDS011;23738;50.422;18.758;2022-10-16T03:02:46;14.80;;;11.15;;
37903;SDS011;23738;50.422;18.758;2022-10-16T03:05:12;12.95;;;10.95;;
37903;SDS011;23738;50.422;18.758;2022-10-16T03:07:39;15.55;;;12.03;;
37903;SDS011;23738;50.422;18.758;2022-10-16T03:10:05;18.07;;;14.10;;
37903;SDS011;23738;50.422;18.758;2022-10-16T03:12:32;23.80;;;16.37;;
37903;SDS011;23738;50.422;18.758;2022-10-16T03:14:58;19.77;;;16.17;;
37903;SDS011;23738;50.422;18.758;2022-10-16T03:17:24;17.57;;;15.70;;
37903;SDS011;23738;50.422;18.758;2022-10-16T03:19:50;14.50;;;12.68;;
37903;SDS011;23738;50.422;18.758;2022-10-16T03:22:16;16.02;;;12.50;;
37903;SDS011;23738;50.422;18.758;2022-10-16T03:24:42;21.05;;;12.90;;
37903;SDS011;23738;50.422;18.758;2022-10-16T03:27:08;15.63;;;13.75;;
37903;SDS011;23738;50.422;18.758;2022-10-16T03:29:34;16.97;;;13.95;;
37903;SDS011;23738;50.422;18.758;2022-10-16T03:32:00;17.98;;;15.40;;
37903;SDS011;23738;50.422;18.758;2022-10-16T03:34:26;26.80;;;16.12;;
37903;SDS011;23738;50.422;18.758;2022-10-16T03:36:52;15.00;;;13.20;;
37903;SDS011;23738;50.422;18.758;2022-10-16T03:39:17;16.35;;;13.58;;
37903;SDS011;23738;50.422;18.758;2022-10-16T03:41:44;14.03;;;12.53;;
37903;SDS011;23738;50.422;18.758;2022-10-16T03:44:11;18.60;;;14.83;;
37903;SDS011;23738;50.422;18.758;2022-10-16T03:46:37;18.23;;;15.72;;
37903;SDS011;23738;50.422;18.758;2022-10-16T03:49:03;21.50;;;16.37;;
37903;SDS011;23738;50.422;18.758;2022-10-16T03:51:29;25.75;;;17.25;;
37903;SDS011;23738;50.422;18.758;2022-10-16T03:53:55;19.00;;;14.78;;
37903;SDS011;23738;50.422;18.758;2022-10-16T03:56:20;16.52;;;14.68;;
37903;SDS011;23738;50.422;18.758;2022-10-16T03:58:46;21.05;;;16.10;;
37903;SDS011;23738;50.422;18.758;2022-10-16T04:01:12;19.92;;;16.27;;
37903;SDS011;23738;50.422;18.758;2022-10-16T04:03:37;20.65;;;17.10;;
37903;SDS011;23738;50.422;18.758;2022-10-16T04:06:03;22.93;;;17.85;;
37903;SDS011;23738;50.422;18.758;2022-10-16T04:08:29;19.98;;;16.95;;
37903;SDS011;23738;50.422;18.758;2022-10-16T04:10:55;16.82;;;15.10;;
37903;SDS011;23738;50.422;18.758;2022-10-16T04:13:21;17.27;;;14.55;;
37903;SDS011;23738;50.422;18.758;2022-10-16T04:15:46;19.30;;;13.93;;
37903;SDS011;23738;50.422;18.758;2022-10-16T04:18:12;18.27;;;15.65;;
37903;SDS011;23738;50.422;18.758;2022-10-16T04:20:38;22.22;;;16.32;;
37903;SDS011;23738;50.422;18.758;2022-10-16T04:23:04;24.60;;;17.90;;
37903;SDS011;23738;50.422;18.758;2022-10-16T04:25:30;18.25;;;16.35;;
37903;SDS011;23738;50.422;18.758;2022-10-16T04:27:56;18.73;;;14.70;;
37903;SDS011;23738;50.422;18.758;2022-10-16T04:30:22;19.73;;;14.73;;
37903;SDS011;23738;50.422;18.758;2022-10-16T04:32:49;16.87;;;14.50;;
37903;SDS011;23738;50.422;18.758;2022-10-16T04:35:16;14.80;;;13.13;;
37903;SDS011;23738;50.422;18.758;2022-10-16T04:37:44;15.25;;;13.70;;
37903;SDS011;23738;50.422;18.758;2022-10-16T04:40:10;19.15;;;15.83;;
37903;SDS011;23738;50.422;18.758;2022-10-16T04:42:36;17.30;;;15.55;;
37903;SDS011;23738;50.422;18.758;2022-10-16T04:45:02;16.65;;;12.93;;
37903;SDS011;23738;50.422;18.758;2022-10-16T04:47:30;12.80;;;11.45;;
37903;SDS011;23738;50.422;18.758;2022-10-16T04:49:55;18.77;;;14.87;;
37903;SDS011;23738;50.422;18.758;2022-10-16T04:52:22;15.72;;;14.15;;
37903;SDS011;23738;50.422;18.758;2022-10-16T04:54:50;15.83;;;14.23;;
37903;SDS011;23738;50.422;18.758;2022-10-16T04:57:16;17.27;;;13.83;;
37903;SDS011;23738;50.422;18.758;2022-10-16T04:59:42;16.75;;;15.05;;
37903;SDS011;23738;50.422;18.758;2022-10-16T05:02:08;14.63;;;12.63;;
37903;SDS011;23738;50.422;18.758;2022-10-16T05:04:34;13.08;;;11.68;;
37903;SDS011;23738;50.422;18.758;2022-10-16T05:07:00;14.28;;;12.73;;
37903;SDS011;23738;50.422;18.758;2022-10-16T05:09:25;16.80;;;14.38;;
37903;SDS011;23738;50.422;18.758;2022-10-16T05:11:51;17.02;;;14.75;;
37903;SDS011;23738;50.422;18.758;2022-10-16T05:14:18;17.32;;;15.25;;
37903;SDS011;23738;50.422;18.758;2022-10-16T05:16:43;23.02;;;16.17;;
37903;SDS011;23738;50.422;18.758;2022-10-16T05:19:09;16.73;;;13.43;;
37903;SDS011;23738;50.422;18.758;2022-10-16T05:21:35;13.53;;;12.10;;
37903;SDS011;23738;50.422;18.758;2022-10-16T05:24:01;13.53;;;12.18;;
37903;SDS011;23738;50.422;18.758;2022-10-16T05:26:27;17.00;;;14.63;;
37903;SDS011;23738;50.422;18.758;2022-10-16T05:28:53;19.98;;;14.23;;
37903;SDS011;23738;50.422;18.758;2022-10-16T05:31:19;17.20;;;15.08;;
37903;SDS011;23738;50.422;18.758;2022-10-16T05:33:44;15.43;;;13.88;;
37903;SDS011;23738;50.422;18.758;2022-10-16T05:36:10;27.85;;;13.75;;
37903;SDS011;23738;50.422;18.758;2022-10-16T05:38:36;14.73;;;12.30;;
37903;SDS011;23738;50.422;18.758;2022-10-16T05:41:03;16.52;;;11.78;;
37903;SDS011;23738;50.422;18.758;2022-10-16T05:43:30;17.32;;;14.30;;
37903;SDS011;23738;50.422;18.758;2022-10-16T05:45:57;20.32;;;15.78;;
37903;SDS011;23738;50.422;18.758;2022-10-16T05:48:27;20.72;;;15.68;;
37903;SDS011;23738;50.422;18.758;2022-10-16T05:50:57;21.02;;;16.87;;
37903;SDS011;23738;50.422;18.758;2022-10-16T05:53:29;19.07;;;14.20;;
37903;SDS011;23738;50.422;18.758;2022-10-16T05:55:56;14.68;;;13.22;;
37903;SDS011;23738;50.422;18.758;2022-10-16T05:58:23;20.85;;;13.15;;
37903;SDS011;23738;50.422;18.758;2022-10-16T06:01:00;22.40;;;14.68;;
37903;SDS011;23738;50.422;18.758;2022-10-16T06:03:29;17.90;;;15.72;;
37903;SDS011;23738;50.422;18.758;2022-10-16T06:05:55;21.70;;;16.10;;
37903;SDS011;23738;50.422;18.758;2022-10-16T06:08:22;22.60;;;16.77;;
37903;SDS011;23738;50.422;18.758;2022-10-16T06:10:49;21.45;;;15.32;;
37903;SDS011;23738;50.422;18.758;2022-10-16T06:13:27;17.80;;;13.25;;
37903;SDS011;23738;50.422;18.758;2022-10-16T06:15:53;16.52;;;13.72;;
37903;SDS011;23738;50.422;18.758;2022-10-16T06:18:22;17.30;;;15.40;;
37903;SDS011;23738;50.422;18.758;2022-10-16T06:20:48;18.77;;;15.20;;
37903;SDS011;23738;50.422;18.758;2022-10-16T06:23:14;20.68;;;15.38;;
37903;SDS011;23738;50.422;18.758;2022-10-16T06:25:39;20.17;;;16.62;;
37903;SDS011;23738;50.422;18.758;2022-10-16T06:28:05;17.05;;;14.45;;
37903;SDS011;23738;50.422;18.758;2022-10-16T06:30:31;16.20;;;13.15;;
37903;SDS011;23738;50.422;18.758;2022-10-16T06:32:57;15.72;;;12.88;;
37903;SDS011;23738;50.422;18.758;2022-10-16T06:35:22;16.85;;;15.05;;
37903;SDS011;23738;50.422;18.758;2022-10-16T06:37:49;21.80;;;15.87;;
37903;SDS011;23738;50.422;18.758;2022-10-16T06:40:15;21.57;;;15.07;;
37903;SDS011;23738;50.422;18.758;2022-10-16T06:42:41;25.15;;;17.30;;
37903;SDS011;23738;50.422;18.758;2022-10-16T06:45:07;19.05;;;14.65;;
37903;SDS011;23738;50.422;18.758;2022-10-16T06:47:34;16.97;;;13.30;;
37903;SDS011;23738;50.422;18.758;2022-10-16T06:50:00;23.55;;;14.25;;
37903;SDS011;23738;50.422;18.758;2022-10-16T06:52:27;23.80;;;15.55;;
37903;SDS011;23738;50.422;18.758;2022-10-16T06:54:53;18.37;;;15.78;;
37903;SDS011;23738;50.422;18.758;2022-10-16T06:57:19;20.20;;;15.75;;
37903;SDS011;23738;50.422;18.758;2022-10-16T06:59:45;20.32;;;15.85;;
37903;SDS011;23738;50.422;18.758;2022-10-16T07:02:11;15.58;;;14.00;;
37903;SDS011;23738;50.422;18.758;2022-10-16T07:04:37;18.80;;;13.00;;
37903;SDS011;23738;50.422;18.758;2022-10-16T07:07:02;19.02;;;14.13;;
37903;SDS011;23738;50.422;18.758;2022-10-16T07:09:28;17.15;;;14.80;;
37903;SDS011;23738;50.422;18.758;2022-10-16T07:11:54;18.73;;;14.73;;
37903;SDS011;23738;50.422;18.758;2022-10-16T07:14:20;24.60;;;16.32;;
37903;SDS011;23738;50.422;18.758;2022-10-16T07:16:47;19.20;;;15.98;;
37903;SDS011;23738;50.422;18.758;2022-10-16T07:19:14;17.32;;;14.43;;
37903;SDS011;23738;50.422;18.758;2022-10-16T07:21:42;24.25;;;14.07;;
37903;SDS011;23738;50.422;18.758;2022-10-16T07:24:11;25.17;;;16.15;;
37903;SDS011;23738;50.422;18.758;2022-10-16T07:26:41;18.02;;;15.90;;
37903;SDS011;23738;50.422;18.758;2022-10-16T07:29:14;20.10;;;17.57;;
37903;SDS011;23738;50.422;18.758;2022-10-16T07:31:39;22.50;;;17.17;;
37903;SDS011;23738;50.422;18.758;2022-10-16T07:34:05;24.32;;;17.40;;
37903;SDS011;23738;50.422;18.758;2022-10-16T07:36:31;23.67;;;17.52;;
37903;SDS011;23738;50.422;18.758;2022-10-16T07:38:57;20.52;;;17.15;;
37903;SDS011;23738;50.422;18.758;2022-10-16T07:41:23;21.12;;;18.92;;
37903;SDS011;23738;50.422;18.758;2022-10-16T07:43:49;25.85;;;19.02;;
37903;SDS011;23738;50.422;18.758;2022-10-16T07:46:19;29.85;;;19.17;;
37903;SDS011;23738;50.422;18.758;2022-10-16T07:48:47;26.02;;;18.52;;
37903;SDS011;23738;50.422;18.758;2022-10-16T07:51:14;24.25;;;16.42;;
37903;SDS011;23738;50.422;18.758;2022-10-16T07:53:43;17.42;;;15.63;;
37903;SDS011;23738;50.422;18.758;2022-10-16T07:56:09;16.45;;;14.53;;
37903;SDS011;23738;50.422;18.758;2022-10-16T07:58:36;18.05;;;14.30;;
37903;SDS011;23738;50.422;18.758;2022-10-16T08:01:03;16.05;;;14.38;;
37903;SDS011;23738;50.422;18.758;2022-10-16T08:03:31;15.35;;;13.62;;
37903;SDS011;23738;50.422;18.758;2022-10-16T08:05:58;14.75;;;13.30;;
37903;SDS011;23738;50.422;18.758;2022-10-16T08:08:24;15.58;;;13.32;;
37903;SDS011;23738;50.422;18.758;2022-10-16T08:10:50;13.78;;;12.47;;
37903;SDS011;23738;50.422;18.758;2022-10-16T08:13:16;15.38;;;13.78;;
37903;SDS011;23738;50.422;18.758;2022-10-16T08:15:43;14.33;;;12.78;;
37903;SDS011;23738;50.422;18.758;2022-10-16T08:18:10;15.18;;;11.70;;
37903;SDS011;23738;50.422;18.758;2022-10-16T08:20:39;16.75;;;11.90;;
37903;SDS011;23738;50.422;18.758;2022-10-16T08:23:06;17.87;;;13.05;;
37903;SDS011;23738;50.422;18.758;2022-10-16T08:25:36;14.03;;;11.25;;
37903;SDS011;23738;50.422;18.758;2022-10-16T08:28:06;12.28;;;11.12;;
37903;SDS011;23738;50.422;18.758;2022-10-16T08:30:33;12.07;;;10.58;;
37903;SDS011;23738;50.422;18.758;2022-10-16T08:33:00;11.53;;;10.32;;
37903;SDS011;23738;50.422;18.758;2022-10-16T08:35:26;14.18;;;11.57;;
37903;SDS011;23738;50.422;18.758;2022-10-16T08:37:52;13.05;;;10.88;;
37903;SDS011;23738;50.422;18.758;2022-10-16T08:40:28;13.38;;;11.63;;
37903;SDS011;23738;50.422;18.758;2022-10-16T08:48:56;15.15;;;11.50;;
37903;SDS011;23738;50.422;18.758;2022-10-16T08:51:25;13.83;;;11.95;;
37903;SDS011;23738;50.422;18.758;2022-10-16T08:54:03;12.93;;;11.63;;
37903;SDS011;23738;50.422;18.758;2022-10-16T08:56:34;14.63;;;12.37;;
37903;SDS011;23738;50.422;18.758;2022-10-16T08:58:59;16.12;;;10.50;;
37903;SDS011;23738;50.422;18.758;2022-10-16T09:01:32;12.33;;;10.25;;
37903;SDS011;23738;50.422;18.758;2022-10-16T09:06:59;12.50;;;10.60;;
37903;SDS011;23738;50.422;18.758;2022-10-16T09:12:15;11.53;;;10.00;;
37903;SDS011;23738;50.422;18.758;2022-10-16T09:15:04;11.40;;;10.32;;
37903;SDS011;23738;50.422;18.758;2022-10-16T09:17:59;13.62;;;10.78;;
37903;SDS011;23738;50.422;18.758;2022-10-16T09:25:54;13.10;;;10.30;;
37903;SDS011;23738;50.422;18.758;2022-10-16T09:28:21;10.88;;;9.78;;
37903;SDS011;23738;50.422;18.758;2022-10-16T09:30:47;14.60;;;10.13;;
37903;SDS011;23738;50.422;18.758;2022-10-16T09:33:15;12.18;;;11.08;;
37903;SDS011;23738;50.422;18.758;2022-10-16T09:35:44;11.70;;;10.68;;
37903;SDS011;23738;50.422;18.758;2022-10-16T09:40:56;10.55;;;9.45;;
37903;SDS011;23738;50.422;18.758;2022-10-16T09:43:26;14.68;;;10.60;;
37903;SDS011;23738;50.422;18.758;2022-10-16T09:46:08;11.97;;;9.90;;
37903;SDS011;23738;50.422;18.758;2022-10-16T09:48:50;11.75;;;10.10;;
37903;SDS011;23738;50.422;18.758;2022-10-16T09:51:21;11.33;;;9.58;;
37903;SDS011;23738;50.422;18.758;2022-10-16T09:54:00;10.20;;;9.28;;
37903;SDS011;23738;50.422;18.758;2022-10-16T09:56:33;11.95;;;8.48;;
37903;SDS011;23738;50.422;18.758;2022-10-16T10:01:44;8.88;;;7.97;;
37903;SDS011;23738;50.422;18.758;2022-10-16T10:04:16;8.28;;;7.58;;
37903;SDS011;23738;50.422;18.758;2022-10-16T10:06:47;8.03;;;7.42;;
37903;SDS011;23738;50.422;18.758;2022-10-16T10:12:06;8.93;;;8.08;;
37903;SDS011;23738;50.422;18.758;2022-10-16T10:14:48;13.60;;;7.53;;
37903;SDS011;23738;50.422;18.758;2022-10-16T10:17:20;8.33;;;7.55;;
37903;SDS011;23738;50.422;18.758;2022-10-16T10:19:55;8.53;;;7.67;;
37903;SDS011;23738;50.422;18.758;2022-10-16T10:22:44;8.83;;;7.83;;
37903;SDS011;23738;50.422;18.758;2022-10-16T10:28:05;7.97;;;7.28;;
37903;SDS011;23738;50.422;18.758;2022-10-16T10:39:21;10.38;;;8.88;;
37903;SDS011;23738;50.422;18.758;2022-10-16T10:48:02;9.83;;;8.83;;
37903;SDS011;23738;50.422;18.758;2022-10-16T10:59:20;9.90;;;8.63;;
37903;SDS011;23738;50.422;18.758;2022-10-16T11:10:38;8.60;;;7.83;;
37903;SDS011;23738;50.422;18.758;2022-10-16T11:15:52;9.33;;;8.43;;
37903;SDS011;23738;50.422;18.758;2022-10-16T11:18:24;9.18;;;8.33;;
37903;SDS011;23738;50.422;18.758;2022-10-16T11:20:57;9.17;;;7.80;;
37903;SDS011;23738;50.422;18.758;2022-10-16T11:26:34;8.43;;;7.67;;
37903;SDS011;23738;50.422;18.758;2022-10-16T11:29:05;12.18;;;8.03;;
37903;SDS011;23738;50.422;18.758;2022-10-16T11:31:50;9.08;;;8.23;;
37903;SDS011;23738;50.422;18.758;2022-10-16T11:34:25;9.10;;;8.30;;
37903;SDS011;23738;50.422;18.758;2022-10-16T11:39:52;8.80;;;7.87;;
37903;SDS011;23738;50.422;18.758;2022-10-16T11:42:27;10.30;;;8.33;;
37903;SDS011;23738;50.422;18.758;2022-10-16T11:45:00;9.75;;;8.00;;
37903;SDS011;23738;50.422;18.758;2022-10-16T11:47:42;8.55;;;7.75;;
37903;SDS011;23738;50.422;18.758;2022-10-16T11:50:25;8.37;;;7.57;;
37903;SDS011;23738;50.422;18.758;2022-10-16T11:53:37;7.37;;;6.78;;
37903;SDS011;23738;50.422;18.758;2022-10-16T11:56:12;8.35;;;7.40;;
37903;SDS011;23738;50.422;18.758;2022-10-16T11:58:44;10.13;;;8.08;;
37903;SDS011;23738;50.422;18.758;2022-10-16T12:04:30;8.80;;;7.80;;
37903;SDS011;23738;50.422;18.758;2022-10-16T12:07:19;9.25;;;7.85;;
37903;SDS011;23738;50.422;18.758;2022-10-16T12:09:50;8.10;;;7.40;;
37903;SDS011;23738;50.422;18.758;2022-10-16T12:12:25;8.10;;;7.40;;
37903;SDS011;23738;50.422;18.758;2022-10-16T12:17:55;8.75;;;6.97;;
37903;SDS011;23738;50.422;18.758;2022-10-16T12:20:24;8.00;;;7.30;;
37903;SDS011;23738;50.422;18.758;2022-10-16T12:23:04;10.40;;;7.03;;
37903;SDS011;23738;50.422;18.758;2022-10-16T12:25:39;8.40;;;7.60;;
37903;SDS011;23738;50.422;18.758;2022-10-16T12:28:17;7.75;;;7.05;;
37903;SDS011;23738;50.422;18.758;2022-10-16T12:31:45;9.13;;;7.47;;
37903;SDS011;23738;50.422;18.758;2022-10-16T12:33:34;10.88;;;7.47;;
37903;SDS011;23738;50.422;18.758;2022-10-16T12:36:03;8.60;;;7.80;;
37903;SDS011;23738;50.422;18.758;2022-10-16T12:38:50;8.28;;;7.58;;
37903;SDS011;23738;50.422;18.758;2022-10-16T12:41:34;12.88;;;7.90;;
37903;SDS011;23738;50.422;18.758;2022-10-16T12:43:58;8.20;;;7.50;;
37903;SDS011;23738;50.422;18.758;2022-10-16T12:51:54;8.30;;;7.50;;
37903;SDS011;23738;50.422;18.758;2022-10-16T13:00:21;8.13;;;7.42;;
37903;SDS011;23738;50.422;18.758;2022-10-16T13:06:01;9.58;;;8.68;;
37903;SDS011;23738;50.422;18.758;2022-10-16T13:11:39;9.43;;;8.45;;
37903;SDS011;23738;50.422;18.758;2022-10-16T13:17:15;7.83;;;7.12;;
37903;SDS011;23738;50.422;18.758;2022-10-16T13:28:32;8.73;;;7.70;;
37903;SDS011;23738;50.422;18.758;2022-10-16T13:31:00;11.90;;;7.97;;
37903;SDS011;23738;50.422;18.758;2022-10-16T13:33:32;8.58;;;7.70;;
37903;SDS011;23738;50.422;18.758;2022-10-16T13:36:03;7.97;;;7.37;;
37903;SDS011;23738;50.422;18.758;2022-10-16T13:38:32;8.95;;;8.00;;
37903;SDS011;23738;50.422;18.758;2022-10-16T13:41:04;8.85;;;7.97;;
37903;SDS011;23738;50.422;18.758;2022-10-16T13:43:51;8.75;;;7.95;;
37903;SDS011;23738;50.422;18.758;2022-10-16T13:46:22;7.85;;;7.12;;
37903;SDS011;23738;50.422;18.758;2022-10-16T13:48:56;10.48;;;7.40;;
37903;SDS011;23738;50.422;18.758;2022-10-16T13:51:28;8.60;;;7.80;;
37903;SDS011;23738;50.422;18.758;2022-10-16T13:53:56;9.85;;;7.92;;
37903;SDS011;23738;50.422;18.758;2022-10-16T13:56:25;7.80;;;7.10;;
37903;SDS011;23738;50.422;18.758;2022-10-16T13:59:00;9.05;;;8.15;;
37903;SDS011;23738;50.422;18.758;2022-10-16T14:01:29;10.18;;;8.48;;
37903;SDS011;23738;50.422;18.758;2022-10-16T14:04:02;8.85;;;8.00;;
37903;SDS011;23738;50.422;18.758;2022-10-16T14:06:34;9.68;;;8.78;;
37903;SDS011;23738;50.422;18.758;2022-10-16T14:09:06;10.48;;;9.40;;
37903;SDS011;23738;50.422;18.758;2022-10-16T14:12:01;8.83;;;8.00;;
37903;SDS011;23738;50.422;18.758;2022-10-16T14:14:33;10.68;;;8.23;;
37903;SDS011;23738;50.422;18.758;2022-10-16T14:17:12;9.40;;;8.50;;
37903;SDS011;23738;50.422;18.758;2022-10-16T14:19:47;10.18;;;8.50;;
37903;SDS011;23738;50.422;18.758;2022-10-16T14:22:35;11.28;;;8.23;;
37903;SDS011;23738;50.422;18.758;2022-10-16T14:28:15;9.53;;;8.63;;
37903;SDS011;23738;50.422;18.758;2022-10-16T14:30:52;8.75;;;7.85;;
37903;SDS011;23738;50.422;18.758;2022-10-16T14:38:38;11.08;;;10.08;;
37903;SDS011;23738;50.422;18.758;2022-10-16T14:41:08;10.95;;;9.95;;
37903;SDS011;23738;50.422;18.758;2022-10-16T14:43:39;12.28;;;9.33;;
37903;SDS011;23738;50.422;18.758;2022-10-16T14:46:12;9.60;;;8.73;;
37903;SDS011;23738;50.422;18.758;2022-10-16T14:48:40;9.60;;;8.65;;
37903;SDS011;23738;50.422;18.758;2022-10-16T14:51:15;9.53;;;8.63;;
37903;SDS011;23738;50.422;18.758;2022-10-16T14:53:43;9.90;;;8.90;;
37903;SDS011;23738;50.422;18.758;2022-10-16T14:58:51;10.03;;;8.43;;
37903;SDS011;23738;50.422;18.758;2022-10-16T15:01:17;10.38;;;9.08;;
37903;SDS011;23738;50.422;18.758;2022-10-16T15:03:44;11.12;;;8.65;;
37903;SDS011;23738;50.422;18.758;2022-10-16T15:06:11;12.65;;;9.18;;
37903;SDS011;23738;50.422;18.758;2022-10-16T15:08:38;10.03;;;9.13;;
37903;SDS011;23738;50.422;18.758;2022-10-16T15:11:04;10.00;;;9.13;;
37903;SDS011;23738;50.422;18.758;2022-10-16T15:13:37;10.58;;;9.40;;
37903;SDS011;23738;50.422;18.758;2022-10-16T15:16:03;10.85;;;9.85;;
37903;SDS011;23738;50.422;18.758;2022-10-16T15:18:29;10.50;;;9.13;;
37903;SDS011;23738;50.422;18.758;2022-10-16T15:20:55;11.78;;;9.58;;
37903;SDS011;23738;50.422;18.758;2022-10-16T15:23:21;15.70;;;14.20;;
37903;SDS011;23738;50.422;18.758;2022-10-16T15:25:51;13.22;;;11.68;;
37903;SDS011;23738;50.422;18.758;2022-10-16T15:28:20;12.07;;;10.88;;
37903;SDS011;23738;50.422;18.758;2022-10-16T15:30:48;15.58;;;12.35;;
37903;SDS011;23738;50.422;18.758;2022-10-16T15:33:18;14.50;;;11.08;;
37903;SDS011;23738;50.422;18.758;2022-10-16T15:35:47;12.37;;;11.25;;
37903;SDS011;23738;50.422;18.758;2022-10-16T15:38:16;12.82;;;11.53;;
37903;SDS011;23738;50.422;18.758;2022-10-16T15:40:44;15.60;;;13.48;;
37903;SDS011;23738;50.422;18.758;2022-10-16T15:43:11;18.27;;;13.70;;
37903;SDS011;23738;50.422;18.758;2022-10-16T15:45:37;26.25;;;21.45;;
37903;SDS011;23738;50.422;18.758;2022-10-16T15:48:04;21.82;;;19.55;;
37903;SDS011;23738;50.422;18.758;2022-10-16T15:50:30;18.70;;;17.00;;
37903;SDS011;23738;50.422;18.758;2022-10-16T15:52:57;20.10;;;17.10;;
37903;SDS011;23738;50.422;18.758;2022-10-16T15:55:23;20.25;;;18.32;;
37903;SDS011;23738;50.422;18.758;2022-10-16T15:57:49;17.65;;;14.95;;
37903;SDS011;23738;50.422;18.758;2022-10-16T16:00:16;15.30;;;13.90;;
37903;SDS011;23738;50.422;18.758;2022-10-16T16:02:49;16.42;;;14.40;;
37903;SDS011;23738;50.422;18.758;2022-10-16T16:05:17;15.47;;;13.87;;
37903;SDS011;23738;50.422;18.758;2022-10-16T16:07:43;20.85;;;15.35;;
37903;SDS011;23738;50.422;18.758;2022-10-16T16:10:10;23.12;;;18.23;;
37903;SDS011;23738;50.422;18.758;2022-10-16T16:12:36;18.15;;;16.52;;
37903;SDS011;23738;50.422;18.758;2022-10-16T16:15:04;21.12;;;17.82;;
37903;SDS011;23738;50.422;18.758;2022-10-16T16:17:32;18.87;;;16.60;;
37903;SDS011;23738;50.422;18.758;2022-10-16T16:19:59;21.35;;;17.55;;
37903;SDS011;23738;50.422;18.758;2022-10-16T16:22:25;31.00;;;19.32;;
37903;SDS011;23738;50.422;18.758;2022-10-16T16:24:51;20.48;;;18.35;;
37903;SDS011;23738;50.422;18.758;2022-10-16T16:27:17;25.57;;;19.70;;
37903;SDS011;23738;50.422;18.758;2022-10-16T16:29:44;19.60;;;16.65;;
37903;SDS011;23738;50.422;18.758;2022-10-16T16:32:11;24.63;;;18.92;;
37903;SDS011;23738;50.422;18.758;2022-10-16T16:34:36;22.77;;;19.55;;
37903;SDS011;23738;50.422;18.758;2022-10-16T16:37:02;24.72;;;20.80;;
37903;SDS011;23738;50.422;18.758;2022-10-16T16:39:28;21.15;;;18.95;;